sensor_id;sensor_type;location;lat;lon;timestamp;temperature;humidity
14093;DHT22;7123;49.468;10.992;2023-07-16T00:00:27;25.20;1.00
14093;DHT22;7123;49.468;10.992;2023-07-16T00:02:54;25.30;1.00
14093;DHT22;7123;49.468;10.992;2023-07-16T00:12:10;24.00;13.50
14093;DHT22;7123;49.468;10.992;2023-07-16T00:14:37;23.90;11.90
14093;DHT22;7123;49.468;10.992;2023-07-16T00:17:04;23.90;14.60
14093;DHT22;7123;49.468;10.992;2023-07-16T00:19:32;24.00;7.90
14093;DHT22;7123;49.468;10.992;2023-07-16T00:21:59;24.10;1.00
14093;DHT22;7123;49.468;10.992;2023-07-16T00:24:26;24.30;1.00
14093;DHT22;7123;49.468;10.992;2023-07-16T00:26:53;24.50;1.00
14093;DHT22;7123;49.468;10.992;2023-07-16T00:29:21;24.60;1.00
14093;DHT22;7123;49.468;10.992;2023-07-16T00:31:49;24.80;1.00
14093;DHT22;7123;49.468;10.992;2023-07-16T00:34:16;24.90;1.00
14093;DHT22;7123;49.468;10.992;2023-07-16T00:36:43;24.60;1.00
14093;DHT22;7123;49.468;10.992;2023-07-16T00:39:09;24.50;1.00
14093;DHT22;7123;49.468;10.992;2023-07-16T00:41:36;24.60;1.00
14093;DHT22;7123;49.468;10.992;2023-07-16T00:44:03;24.50;1.00
14093;DHT22;7123;49.468;10.992;2023-07-16T00:46:30;24.30;5.50
14093;DHT22;7123;49.468;10.992;2023-07-16T00:48:57;24.00;9.80
14093;DHT22;7123;49.468;10.992;2023-07-16T00:51:25;23.60;21.00
14093;DHT22;7123;49.468;10.992;2023-07-16T00:53:52;23.40;27.30
14093;DHT22;7123;49.468;10.992;2023-07-16T00:56:19;23.20;32.10
14093;DHT22;7123;49.468;10.992;2023-07-16T00:58:48;23.10;34.60
14093;DHT22;7123;49.468;10.992;2023-07-16T01:08:47;22.30;53.90
14093;DHT22;7123;49.468;10.992;2023-07-16T01:11:16;22.40;49.10
14093;DHT22;7123;49.468;10.992;2023-07-16T01:13:43;22.40;51.00
14093;DHT22;7123;49.468;10.992;2023-07-16T01:16:23;22.30;49.80
14093;DHT22;7123;49.468;10.992;2023-07-16T01:29:30;21.30;65.20
14093;DHT22;7123;49.468;10.992;2023-07-16T01:32:00;21.00;70.90
14093;DHT22;7123;49.468;10.992;2023-07-16T01:34:29;20.80;71.90
14093;DHT22;7123;49.468;10.992;2023-07-16T01:36:57;20.70;77.50
14093;DHT22;7123;49.468;10.992;2023-07-16T01:39:24;20.50;78.30
14093;DHT22;7123;49.468;10.992;2023-07-16T01:41:51;20.40;81.80
14093;DHT22;7123;49.468;10.992;2023-07-16T01:44:18;20.30;86.30
14093;DHT22;7123;49.468;10.992;2023-07-16T01:49:51;20.50;85.30
14093;DHT22;7123;49.468;10.992;2023-07-16T01:52:18;20.60;75.90
14093;DHT22;7123;49.468;10.992;2023-07-16T01:54:44;20.60;79.00
14093;DHT22;7123;49.468;10.992;2023-07-16T01:57:11;20.60;75.20
14093;DHT22;7123;49.468;10.992;2023-07-16T02:07:00;21.70;48.40
14093;DHT22;7123;49.468;10.992;2023-07-16T02:09:27;22.20;33.60
14093;DHT22;7123;49.468;10.992;2023-07-16T02:11:53;22.40;30.40
14093;DHT22;7123;49.468;10.992;2023-07-16T02:14:20;22.70;26.20
14093;DHT22;7123;49.468;10.992;2023-07-16T02:16:47;23.00;99.90
14093;DHT22;7123;49.468;10.992;2023-07-16T02:19:15;23.30;99.90
14093;DHT22;7123;49.468;10.992;2023-07-16T02:21:42;23.50;99.90
14093;DHT22;7123;49.468;10.992;2023-07-16T02:24:08;23.70;99.90
14093;DHT22;7123;49.468;10.992;2023-07-16T02:26:35;23.90;99.90
14093;DHT22;7123;49.468;10.992;2023-07-16T02:29:02;24.10;99.90
14093;DHT22;7123;49.468;10.992;2023-07-16T02:31:29;24.30;99.90
14093;DHT22;7123;49.468;10.992;2023-07-16T02:33:55;24.40;99.90
14093;DHT22;7123;49.468;10.992;2023-07-16T02:36:22;24.60;99.90
14093;DHT22;7123;49.468;10.992;2023-07-16T02:42:47;24.80;99.90
14093;DHT22;7123;49.468;10.992;2023-07-16T02:45:14;24.80;99.90
14093;DHT22;7123;49.468;10.992;2023-07-16T02:47:40;24.80;99.90
14093;DHT22;7123;49.468;10.992;2023-07-16T02:50:07;24.80;99.90
14093;DHT22;7123;49.468;10.992;2023-07-16T02:52:34;24.80;99.90
14093;DHT22;7123;49.468;10.992;2023-07-16T02:55:01;24.70;99.90
14093;DHT22;7123;49.468;10.992;2023-07-16T02:57:28;24.60;99.90
14093;DHT22;7123;49.468;10.992;2023-07-16T02:59:55;24.50;99.90
14093;DHT22;7123;49.468;10.992;2023-07-16T03:02:21;24.50;99.90
14093;DHT22;7123;49.468;10.992;2023-07-16T03:04:48;24.40;99.90
14093;DHT22;7123;49.468;10.992;2023-07-16T03:07:15;24.40;99.90
14093;DHT22;7123;49.468;10.992;2023-07-16T03:09:42;24.40;99.90
14093;DHT22;7123;49.468;10.992;2023-07-16T03:12:09;24.40;99.90
14093;DHT22;7123;49.468;10.992;2023-07-16T03:14:35;24.40;99.90
14093;DHT22;7123;49.468;10.992;2023-07-16T03:17:02;24.20;99.90
14093;DHT22;7123;49.468;10.992;2023-07-16T03:19:30;24.00;99.90
14093;DHT22;7123;49.468;10.992;2023-07-16T03:21:57;23.60;99.90
14093;DHT22;7123;49.468;10.992;2023-07-16T03:24:23;23.00;99.90
14093;DHT22;7123;49.468;10.992;2023-07-16T03:26:50;21.90;99.90
14093;DHT22;7123;49.468;10.992;2023-07-16T03:29:19;21.40;99.90
14093;DHT22;7123;49.468;10.992;2023-07-16T03:31:46;21.00;99.90
14093;DHT22;7123;49.468;10.992;2023-07-16T03:34:13;20.90;99.90
14093;DHT22;7123;49.468;10.992;2023-07-16T03:36:39;20.80;99.90
14093;DHT22;7123;49.468;10.992;2023-07-16T03:39:06;20.80;99.90
14093;DHT22;7123;49.468;10.992;2023-07-16T03:41:33;20.70;99.90
14093;DHT22;7123;49.468;10.992;2023-07-16T03:43:59;20.60;99.90
14093;DHT22;7123;49.468;10.992;2023-07-16T03:46:26;20.50;99.90
14093;DHT22;7123;49.468;10.992;2023-07-16T03:48:53;20.50;99.90
14093;DHT22;7123;49.468;10.992;2023-07-16T03:51:20;20.40;99.90
14093;DHT22;7123;49.468;10.992;2023-07-16T03:53:47;20.30;99.90
14093;DHT22;7123;49.468;10.992;2023-07-16T03:56:13;20.30;99.90
14093;DHT22;7123;49.468;10.992;2023-07-16T03:58:41;20.30;99.90
14093;DHT22;7123;49.468;10.992;2023-07-16T04:01:07;20.30;99.90
14093;DHT22;7123;49.468;10.992;2023-07-16T04:03:34;20.30;99.90
14093;DHT22;7123;49.468;10.992;2023-07-16T04:06:05;20.20;99.90
14093;DHT22;7123;49.468;10.992;2023-07-16T04:08:32;20.10;99.90
14093;DHT22;7123;49.468;10.992;2023-07-16T04:10:59;20.00;99.90
14093;DHT22;7123;49.468;10.992;2023-07-16T04:13:26;19.90;99.90
14093;DHT22;7123;49.468;10.992;2023-07-16T04:15:52;20.00;99.90
14093;DHT22;7123;49.468;10.992;2023-07-16T04:18:26;20.10;99.90
14093;DHT22;7123;49.468;10.992;2023-07-16T04:20:53;20.30;99.90
14093;DHT22;7123;49.468;10.992;2023-07-16T04:23:20;20.20;99.90
14093;DHT22;7123;49.468;10.992;2023-07-16T04:25:47;20.10;99.90
14093;DHT22;7123;49.468;10.992;2023-07-16T04:28:17;19.80;99.90
14093;DHT22;7123;49.468;10.992;2023-07-16T04:30:44;19.50;99.90
14093;DHT22;7123;49.468;10.992;2023-07-16T04:33:11;19.30;99.90
14093;DHT22;7123;49.468;10.992;2023-07-16T04:35:38;19.20;99.90
14093;DHT22;7123;49.468;10.992;2023-07-16T04:38:04;19.10;99.90
14093;DHT22;7123;49.468;10.992;2023-07-16T04:40:31;19.00;99.90
14093;DHT22;7123;49.468;10.992;2023-07-16T04:42:58;19.00;99.90
14093;DHT22;7123;49.468;10.992;2023-07-16T04:45:24;18.90;99.90
14093;DHT22;7123;49.468;10.992;2023-07-16T04:47:51;19.00;99.90
14093;DHT22;7123;49.468;10.992;2023-07-16T04:50:18;18.90;99.90
14093;DHT22;7123;49.468;10.992;2023-07-16T04:52:45;19.10;99.90
14093;DHT22;7123;49.468;10.992;2023-07-16T04:55:12;19.10;99.90
14093;DHT22;7123;49.468;10.992;2023-07-16T04:57:39;19.10;99.90
14093;DHT22;7123;49.468;10.992;2023-07-16T05:00:06;19.20;99.90
14093;DHT22;7123;49.468;10.992;2023-07-16T05:02:33;19.10;99.90
14093;DHT22;7123;49.468;10.992;2023-07-16T05:04:59;19.10;99.90
14093;DHT22;7123;49.468;10.992;2023-07-16T05:07:26;19.10;99.90
14093;DHT22;7123;49.468;10.992;2023-07-16T05:09:53;19.10;99.90
14093;DHT22;7123;49.468;10.992;2023-07-16T05:12:20;19.10;99.90
14093;DHT22;7123;49.468;10.992;2023-07-16T05:14:47;19.10;99.90
14093;DHT22;7123;49.468;10.992;2023-07-16T05:17:14;19.20;99.90
14093;DHT22;7123;49.468;10.992;2023-07-16T05:19:42;19.20;99.90
14093;DHT22;7123;49.468;10.992;2023-07-16T05:22:09;19.20;99.90
14093;DHT22;7123;49.468;10.992;2023-07-16T05:24:35;19.20;99.90
14093;DHT22;7123;49.468;10.992;2023-07-16T05:27:02;19.10;99.90
14093;DHT22;7123;49.468;10.992;2023-07-16T05:29:29;19.00;99.90
14093;DHT22;7123;49.468;10.992;2023-07-16T05:31:56;19.00;99.90
14093;DHT22;7123;49.468;10.992;2023-07-16T05:34:23;18.90;99.90
14093;DHT22;7123;49.468;10.992;2023-07-16T05:36:52;18.90;99.90
14093;DHT22;7123;49.468;10.992;2023-07-16T05:39:19;18.80;99.90
14093;DHT22;7123;49.468;10.992;2023-07-16T05:41:46;18.80;99.90
14093;DHT22;7123;49.468;10.992;2023-07-16T05:44:12;18.90;99.90
14093;DHT22;7123;49.468;10.992;2023-07-16T05:46:39;18.90;99.90
14093;DHT22;7123;49.468;10.992;2023-07-16T05:49:06;18.80;99.90
14093;DHT22;7123;49.468;10.992;2023-07-16T05:51:33;18.90;99.90
14093;DHT22;7123;49.468;10.992;2023-07-16T05:54:00;18.90;99.90
14093;DHT22;7123;49.468;10.992;2023-07-16T05:56:26;18.90;99.90
14093;DHT22;7123;49.468;10.992;2023-07-16T05:58:53;19.00;99.90
14093;DHT22;7123;49.468;10.992;2023-07-16T06:01:20;19.10;99.90
14093;DHT22;7123;49.468;10.992;2023-07-16T06:03:46;19.20;99.90
14093;DHT22;7123;49.468;10.992;2023-07-16T06:06:13;19.20;99.90
14093;DHT22;7123;49.468;10.992;2023-07-16T06:08:40;19.20;99.90
14093;DHT22;7123;49.468;10.992;2023-07-16T06:11:07;19.10;99.90
14093;DHT22;7123;49.468;10.992;2023-07-16T06:13:34;19.20;99.90
14093;DHT22;7123;49.468;10.992;2023-07-16T06:16:01;19.30;99.90
14093;DHT22;7123;49.468;10.992;2023-07-16T06:18:28;19.20;99.90
14093;DHT22;7123;49.468;10.992;2023-07-16T06:20:55;19.10;99.90
14093;DHT22;7123;49.468;10.992;2023-07-16T06:23:22;19.20;99.90
14093;DHT22;7123;49.468;10.992;2023-07-16T06:25:54;19.20;99.90
14093;DHT22;7123;49.468;10.992;2023-07-16T06:28:20;19.10;99.90
14093;DHT22;7123;49.468;10.992;2023-07-16T06:30:47;19.20;99.90
14093;DHT22;7123;49.468;10.992;2023-07-16T06:33:14;19.20;99.90
14093;DHT22;7123;49.468;10.992;2023-07-16T06:35:48;19.20;99.90
14093;DHT22;7123;49.468;10.992;2023-07-16T06:38:15;19.20;99.90
14093;DHT22;7123;49.468;10.992;2023-07-16T06:40:52;19.20;99.90
14093;DHT22;7123;49.468;10.992;2023-07-16T06:43:18;19.20;99.90
14093;DHT22;7123;49.468;10.992;2023-07-16T06:45:45;19.20;99.90
14093;DHT22;7123;49.468;10.992;2023-07-16T06:48:12;19.30;99.90
14093;DHT22;7123;49.468;10.992;2023-07-16T06:50:39;19.30;99.90
14093;DHT22;7123;49.468;10.992;2023-07-16T06:53:06;19.20;99.90
14093;DHT22;7123;49.468;10.992;2023-07-16T06:55:32;19.20;99.90
14093;DHT22;7123;49.468;10.992;2023-07-16T06:58:00;19.20;99.90
14093;DHT22;7123;49.468;10.992;2023-07-16T07:00:27;19.20;99.90
14093;DHT22;7123;49.468;10.992;2023-07-16T07:02:54;19.10;99.90
14093;DHT22;7123;49.468;10.992;2023-07-16T07:05:22;19.10;99.90
14093;DHT22;7123;49.468;10.992;2023-07-16T07:07:48;19.10;99.90
14093;DHT22;7123;49.468;10.992;2023-07-16T07:10:15;19.20;99.90
14093;DHT22;7123;49.468;10.992;2023-07-16T07:12:42;19.20;99.90
14093;DHT22;7123;49.468;10.992;2023-07-16T07:15:09;19.30;99.90
14093;DHT22;7123;49.468;10.992;2023-07-16T07:17:36;19.50;99.90
14093;DHT22;7123;49.468;10.992;2023-07-16T07:20:03;19.50;99.90
14093;DHT22;7123;49.468;10.992;2023-07-16T07:22:31;19.50;99.90
14093;DHT22;7123;49.468;10.992;2023-07-16T07:24:58;19.50;99.90
14093;DHT22;7123;49.468;10.992;2023-07-16T07:27:25;19.50;99.90
14093;DHT22;7123;49.468;10.992;2023-07-16T07:29:52;19.30;99.90
14093;DHT22;7123;49.468;10.992;2023-07-16T07:32:20;19.20;99.90
14093;DHT22;7123;49.468;10.992;2023-07-16T07:34:48;19.20;99.90
14093;DHT22;7123;49.468;10.992;2023-07-16T07:37:14;19.20;99.90
14093;DHT22;7123;49.468;10.992;2023-07-16T07:39:41;19.30;99.90
14093;DHT22;7123;49.468;10.992;2023-07-16T07:42:08;19.40;99.90
14093;DHT22;7123;49.468;10.992;2023-07-16T07:44:36;19.40;99.90
14093;DHT22;7123;49.468;10.992;2023-07-16T07:47:04;19.50;99.90
14093;DHT22;7123;49.468;10.992;2023-07-16T07:49:31;19.50;99.90
14093;DHT22;7123;49.468;10.992;2023-07-16T07:51:58;19.50;99.90
14093;DHT22;7123;49.468;10.992;2023-07-16T07:54:25;19.60;99.90
14093;DHT22;7123;49.468;10.992;2023-07-16T07:56:51;19.80;99.90
14093;DHT22;7123;49.468;10.992;2023-07-16T07:59:18;19.80;99.90
14093;DHT22;7123;49.468;10.992;2023-07-16T08:01:45;19.80;99.90
14093;DHT22;7123;49.468;10.992;2023-07-16T08:04:12;19.80;99.90
14093;DHT22;7123;49.468;10.992;2023-07-16T08:06:39;19.80;99.90
14093;DHT22;7123;49.468;10.992;2023-07-16T08:09:06;20.00;99.90
14093;DHT22;7123;49.468;10.992;2023-07-16T08:11:32;20.00;99.90
14093;DHT22;7123;49.468;10.992;2023-07-16T08:13:59;19.90;99.90
14093;DHT22;7123;49.468;10.992;2023-07-16T08:16:26;19.90;99.90
14093;DHT22;7123;49.468;10.992;2023-07-16T08:18:54;20.00;99.90
14093;DHT22;7123;49.468;10.992;2023-07-16T08:21:20;20.10;99.90
14093;DHT22;7123;49.468;10.992;2023-07-16T08:23:50;20.10;99.90
14093;DHT22;7123;49.468;10.992;2023-07-16T08:26:17;20.20;99.90
14093;DHT22;7123;49.468;10.992;2023-07-16T08:28:44;20.00;99.90
14093;DHT22;7123;49.468;10.992;2023-07-16T08:31:12;19.90;99.90
14093;DHT22;7123;49.468;10.992;2023-07-16T08:33:39;19.70;99.90
14093;DHT22;7123;49.468;10.992;2023-07-16T08:36:06;19.60;99.90
14093;DHT22;7123;49.468;10.992;2023-07-16T08:38:33;19.60;99.90
14093;DHT22;7123;49.468;10.992;2023-07-16T08:41:00;19.60;99.90
14093;DHT22;7123;49.468;10.992;2023-07-16T08:43:28;19.70;99.90
14093;DHT22;7123;49.468;10.992;2023-07-16T08:45:56;19.90;99.90
14093;DHT22;7123;49.468;10.992;2023-07-16T08:48:24;20.00;99.90
14093;DHT22;7123;49.468;10.992;2023-07-16T08:50:53;20.10;99.90
14093;DHT22;7123;49.468;10.992;2023-07-16T08:53:23;20.20;99.90
14093;DHT22;7123;49.468;10.992;2023-07-16T08:55:50;20.50;99.90
14093;DHT22;7123;49.468;10.992;2023-07-16T08:58:19;20.50;99.90
14093;DHT22;7123;49.468;10.992;2023-07-16T09:00:48;20.60;99.90
14093;DHT22;7123;49.468;10.992;2023-07-16T09:03:15;20.80;99.90
14093;DHT22;7123;49.468;10.992;2023-07-16T09:05:45;20.90;99.90
14093;DHT22;7123;49.468;10.992;2023-07-16T09:08:13;21.20;99.90
14093;DHT22;7123;49.468;10.992;2023-07-16T09:10:41;21.10;99.90
14093;DHT22;7123;49.468;10.992;2023-07-16T09:13:08;21.30;99.90
14093;DHT22;7123;49.468;10.992;2023-07-16T09:15:36;21.50;99.90
14093;DHT22;7123;49.468;10.992;2023-07-16T09:18:04;21.60;99.90
14093;DHT22;7123;49.468;10.992;2023-07-16T09:20:31;21.50;99.90
14093;DHT22;7123;49.468;10.992;2023-07-16T09:22:58;21.50;99.90
14093;DHT22;7123;49.468;10.992;2023-07-16T09:25:29;21.50;99.90
14093;DHT22;7123;49.468;10.992;2023-07-16T09:28:02;21.60;99.90
14093;DHT22;7123;49.468;10.992;2023-07-16T09:30:36;21.70;99.90
14093;DHT22;7123;49.468;10.992;2023-07-16T09:33:15;21.70;99.90
14093;DHT22;7123;49.468;10.992;2023-07-16T09:35:43;21.70;99.90
14093;DHT22;7123;49.468;10.992;2023-07-16T09:38:11;21.90;99.90
14093;DHT22;7123;49.468;10.992;2023-07-16T09:40:39;21.80;99.90
14093;DHT22;7123;49.468;10.992;2023-07-16T09:43:10;21.80;99.90
14093;DHT22;7123;49.468;10.992;2023-07-16T09:45:37;21.80;99.90
14093;DHT22;7123;49.468;10.992;2023-07-16T09:48:05;21.50;99.90
14093;DHT22;7123;49.468;10.992;2023-07-16T09:50:33;21.40;99.90
14093;DHT22;7123;49.468;10.992;2023-07-16T09:53:03;21.50;99.90
14093;DHT22;7123;49.468;10.992;2023-07-16T09:55:32;21.60;99.90
14093;DHT22;7123;49.468;10.992;2023-07-16T09:58:02;21.50;99.90
14093;DHT22;7123;49.468;10.992;2023-07-16T10:00:31;21.60;99.90
14093;DHT22;7123;49.468;10.992;2023-07-16T10:02:59;21.50;99.90
14093;DHT22;7123;49.468;10.992;2023-07-16T10:05:28;21.60;99.90
14093;DHT22;7123;49.468;10.992;2023-07-16T10:07:57;21.30;99.90
14093;DHT22;7123;49.468;10.992;2023-07-16T10:10:39;21.40;99.90
14093;DHT22;7123;49.468;10.992;2023-07-16T10:13:07;21.50;99.90
14093;DHT22;7123;49.468;10.992;2023-07-16T10:15:35;21.60;99.90
14093;DHT22;7123;49.468;10.992;2023-07-16T10:18:01;21.70;99.90
14093;DHT22;7123;49.468;10.992;2023-07-16T10:20:34;21.70;99.90
14093;DHT22;7123;49.468;10.992;2023-07-16T10:23:13;21.80;99.90
14093;DHT22;7123;49.468;10.992;2023-07-16T10:25:41;21.90;99.90
14093;DHT22;7123;49.468;10.992;2023-07-16T10:28:08;22.10;99.90
14093;DHT22;7123;49.468;10.992;2023-07-16T10:30:34;22.10;99.90
14093;DHT22;7123;49.468;10.992;2023-07-16T10:33:13;22.00;99.90
14093;DHT22;7123;49.468;10.992;2023-07-16T10:35:44;22.00;99.90
14093;DHT22;7123;49.468;10.992;2023-07-16T10:38:11;21.90;99.90
14093;DHT22;7123;49.468;10.992;2023-07-16T10:40:44;21.70;99.90
14093;DHT22;7123;49.468;10.992;2023-07-16T10:43:12;21.90;99.90
14093;DHT22;7123;49.468;10.992;2023-07-16T10:45:39;22.00;99.90
14093;DHT22;7123;49.468;10.992;2023-07-16T10:48:06;22.20;99.90
14093;DHT22;7123;49.468;10.992;2023-07-16T10:50:34;22.30;99.90
14093;DHT22;7123;49.468;10.992;2023-07-16T10:53:01;22.40;99.90
14093;DHT22;7123;49.468;10.992;2023-07-16T10:55:29;22.50;99.90
14093;DHT22;7123;49.468;10.992;2023-07-16T10:58:04;22.60;99.90
14093;DHT22;7123;49.468;10.992;2023-07-16T11:00:32;22.70;99.90
14093;DHT22;7123;49.468;10.992;2023-07-16T11:03:03;22.80;99.90
14093;DHT22;7123;49.468;10.992;2023-07-16T11:05:30;22.80;99.90
14093;DHT22;7123;49.468;10.992;2023-07-16T11:07:56;22.80;99.90
14093;DHT22;7123;49.468;10.992;2023-07-16T11:10:24;22.60;99.90
14093;DHT22;7123;49.468;10.992;2023-07-16T11:12:52;22.70;99.90
14093;DHT22;7123;49.468;10.992;2023-07-16T11:15:32;22.80;99.90
14093;DHT22;7123;49.468;10.992;2023-07-16T11:18:04;22.90;99.90
14093;DHT22;7123;49.468;10.992;2023-07-16T11:20:31;23.00;99.90
14093;DHT22;7123;49.468;10.992;2023-07-16T11:22:59;23.00;99.90
14093;DHT22;7123;49.468;10.992;2023-07-16T11:25:27;23.00;99.90
14093;DHT22;7123;49.468;10.992;2023-07-16T11:27:55;23.10;99.90
14093;DHT22;7123;49.468;10.992;2023-07-16T11:30:23;23.10;99.90
14093;DHT22;7123;49.468;10.992;2023-07-16T11:32:51;23.20;99.90
14093;DHT22;7123;49.468;10.992;2023-07-16T11:35:20;23.10;99.90
14093;DHT22;7123;49.468;10.992;2023-07-16T11:37:47;23.20;99.90
14093;DHT22;7123;49.468;10.992;2023-07-16T11:40:19;23.30;99.90
14093;DHT22;7123;49.468;10.992;2023-07-16T11:42:46;23.30;99.90
14093;DHT22;7123;49.468;10.992;2023-07-16T11:45:21;23.10;99.90
14093;DHT22;7123;49.468;10.992;2023-07-16T11:47:49;23.20;99.90
14093;DHT22;7123;49.468;10.992;2023-07-16T11:50:17;23.20;99.90
14093;DHT22;7123;49.468;10.992;2023-07-16T11:52:53;23.10;99.90
14093;DHT22;7123;49.468;10.992;2023-07-16T11:55:20;23.00;99.90
14093;DHT22;7123;49.468;10.992;2023-07-16T11:57:47;23.00;99.90
14093;DHT22;7123;49.468;10.992;2023-07-16T12:00:14;23.10;99.90
14093;DHT22;7123;49.468;10.992;2023-07-16T12:02:41;23.30;99.90
14093;DHT22;7123;49.468;10.992;2023-07-16T12:05:08;23.50;99.90
14093;DHT22;7123;49.468;10.992;2023-07-16T12:07:39;23.60;99.90
14093;DHT22;7123;49.468;10.992;2023-07-16T12:10:07;23.70;99.90
14093;DHT22;7123;49.468;10.992;2023-07-16T12:12:34;23.70;99.90
14093;DHT22;7123;49.468;10.992;2023-07-16T12:15:09;23.60;99.90
14093;DHT22;7123;49.468;10.992;2023-07-16T12:17:36;23.50;99.90
14093;DHT22;7123;49.468;10.992;2023-07-16T12:20:03;23.50;99.90
14093;DHT22;7123;49.468;10.992;2023-07-16T12:22:31;23.60;99.90
14093;DHT22;7123;49.468;10.992;2023-07-16T12:24:58;23.90;99.90
14093;DHT22;7123;49.468;10.992;2023-07-16T12:27:25;24.10;99.90
14093;DHT22;7123;49.468;10.992;2023-07-16T12:29:52;24.00;99.90
14093;DHT22;7123;49.468;10.992;2023-07-16T12:32:21;23.90;99.90
14093;DHT22;7123;49.468;10.992;2023-07-16T12:34:47;24.00;99.90
14093;DHT22;7123;49.468;10.992;2023-07-16T12:37:14;24.00;99.90
14093;DHT22;7123;49.468;10.992;2023-07-16T12:39:43;24.00;99.90
14093;DHT22;7123;49.468;10.992;2023-07-16T12:42:10;24.10;99.90
14093;DHT22;7123;49.468;10.992;2023-07-16T12:44:37;24.20;99.90
14093;DHT22;7123;49.468;10.992;2023-07-16T12:47:04;24.10;99.90
14093;DHT22;7123;49.468;10.992;2023-07-16T12:49:31;24.20;99.90
14093;DHT22;7123;49.468;10.992;2023-07-16T12:51:58;24.20;99.90
14093;DHT22;7123;49.468;10.992;2023-07-16T12:54:25;24.20;99.90
14093;DHT22;7123;49.468;10.992;2023-07-16T12:56:52;24.30;99.90
14093;DHT22;7123;49.468;10.992;2023-07-16T12:59:19;24.50;99.90
14093;DHT22;7123;49.468;10.992;2023-07-16T13:01:45;24.70;99.90
14093;DHT22;7123;49.468;10.992;2023-07-16T13:04:12;24.80;99.90
14093;DHT22;7123;49.468;10.992;2023-07-16T13:06:39;24.90;99.90
14093;DHT22;7123;49.468;10.992;2023-07-16T13:09:06;24.90;99.90
14093;DHT22;7123;49.468;10.992;2023-07-16T13:11:34;25.00;99.90
14093;DHT22;7123;49.468;10.992;2023-07-16T13:14:01;25.10;99.90
14093;DHT22;7123;49.468;10.992;2023-07-16T13:16:28;25.10;99.90
14093;DHT22;7123;49.468;10.992;2023-07-16T13:18:55;25.10;99.90
14093;DHT22;7123;49.468;10.992;2023-07-16T13:21:22;25.10;99.90
14093;DHT22;7123;49.468;10.992;2023-07-16T13:23:49;25.20;99.90
14093;DHT22;7123;49.468;10.992;2023-07-16T13:26:15;25.20;99.90
14093;DHT22;7123;49.468;10.992;2023-07-16T13:28:43;25.40;99.90
14093;DHT22;7123;49.468;10.992;2023-07-16T13:31:09;25.40;99.90
14093;DHT22;7123;49.468;10.992;2023-07-16T13:33:36;25.60;99.90
14093;DHT22;7123;49.468;10.992;2023-07-16T13:36:04;25.80;99.90
14093;DHT22;7123;49.468;10.992;2023-07-16T13:38:31;25.80;99.90
14093;DHT22;7123;49.468;10.992;2023-07-16T13:40:58;25.80;99.90
14093;DHT22;7123;49.468;10.992;2023-07-16T13:43:25;25.60;99.90
14093;DHT22;7123;49.468;10.992;2023-07-16T13:45:53;25.30;99.90
14093;DHT22;7123;49.468;10.992;2023-07-16T13:48:20;25.30;99.90
14093;DHT22;7123;49.468;10.992;2023-07-16T13:50:47;25.30;99.90
14093;DHT22;7123;49.468;10.992;2023-07-16T13:53:13;25.40;99.90
14093;DHT22;7123;49.468;10.992;2023-07-16T13:55:41;25.40;99.90
14093;DHT22;7123;49.468;10.992;2023-07-16T13:58:10;25.20;99.90
14093;DHT22;7123;49.468;10.992;2023-07-16T14:00:37;25.30;99.90
14093;DHT22;7123;49.468;10.992;2023-07-16T14:03:04;25.30;99.90
14093;DHT22;7123;49.468;10.992;2023-07-16T14:05:31;25.40;99.90
14093;DHT22;7123;49.468;10.992;2023-07-16T14:08:01;25.50;99.90
14093;DHT22;7123;49.468;10.992;2023-07-16T14:10:28;25.50;99.90
14093;DHT22;7123;49.468;10.992;2023-07-16T14:12:55;25.40;99.90
14093;DHT22;7123;49.468;10.992;2023-07-16T14:15:22;25.40;99.90
14093;DHT22;7123;49.468;10.992;2023-07-16T14:17:49;25.50;99.90
14093;DHT22;7123;49.468;10.992;2023-07-16T14:20:16;25.60;99.90
14093;DHT22;7123;49.468;10.992;2023-07-16T14:22:44;25.70;99.90
14093;DHT22;7123;49.468;10.992;2023-07-16T14:25:11;25.90;99.90
14093;DHT22;7123;49.468;10.992;2023-07-16T14:27:38;25.90;99.90
14093;DHT22;7123;49.468;10.992;2023-07-16T14:30:05;26.10;99.90
14093;DHT22;7123;49.468;10.992;2023-07-16T14:32:33;26.30;99.90
14093;DHT22;7123;49.468;10.992;2023-07-16T14:35:00;26.40;99.90
14093;DHT22;7123;49.468;10.992;2023-07-16T14:37:27;26.40;99.90
14093;DHT22;7123;49.468;10.992;2023-07-16T14:39:54;26.20;99.90
14093;DHT22;7123;49.468;10.992;2023-07-16T14:42:21;25.70;99.90
14093;DHT22;7123;49.468;10.992;2023-07-16T14:44:48;25.80;99.90
14093;DHT22;7123;49.468;10.992;2023-07-16T14:47:15;26.00;99.90
14093;DHT22;7123;49.468;10.992;2023-07-16T14:49:44;26.20;99.90
14093;DHT22;7123;49.468;10.992;2023-07-16T14:52:11;26.50;99.90
14093;DHT22;7123;49.468;10.992;2023-07-16T14:54:37;26.70;99.90
14093;DHT22;7123;49.468;10.992;2023-07-16T14:57:04;26.50;99.90
14093;DHT22;7123;49.468;10.992;2023-07-16T14:59:32;26.10;99.90
14093;DHT22;7123;49.468;10.992;2023-07-16T15:01:58;26.20;99.90
14093;DHT22;7123;49.468;10.992;2023-07-16T15:04:25;26.50;99.90
14093;DHT22;7123;49.468;10.992;2023-07-16T15:06:52;26.50;99.90
14093;DHT22;7123;49.468;10.992;2023-07-16T15:09:19;26.50;99.90
14093;DHT22;7123;49.468;10.992;2023-07-16T15:11:46;26.40;99.90
14093;DHT22;7123;49.468;10.992;2023-07-16T15:14:13;26.50;99.90
14093;DHT22;7123;49.468;10.992;2023-07-16T15:16:40;26.60;99.90
14093;DHT22;7123;49.468;10.992;2023-07-16T15:19:07;26.70;99.90
14093;DHT22;7123;49.468;10.992;2023-07-16T15:21:35;26.90;99.90
14093;DHT22;7123;49.468;10.992;2023-07-16T15:24:06;26.90;99.90
14093;DHT22;7123;49.468;10.992;2023-07-16T15:26:33;26.70;99.90
14093;DHT22;7123;49.468;10.992;2023-07-16T15:29:00;26.70;99.90
14093;DHT22;7123;49.468;10.992;2023-07-16T15:31:27;26.70;99.90
14093;DHT22;7123;49.468;10.992;2023-07-16T15:33:55;26.70;99.90
14093;DHT22;7123;49.468;10.992;2023-07-16T15:36:22;26.50;99.90
14093;DHT22;7123;49.468;10.992;2023-07-16T15:38:49;26.30;99.90
14093;DHT22;7123;49.468;10.992;2023-07-16T15:41:18;26.20;99.90
14093;DHT22;7123;49.468;10.992;2023-07-16T15:43:50;26.20;99.90
14093;DHT22;7123;49.468;10.992;2023-07-16T15:46:17;26.30;99.90
14093;DHT22;7123;49.468;10.992;2023-07-16T15:48:45;26.50;99.90
14093;DHT22;7123;49.468;10.992;2023-07-16T15:51:13;26.50;99.90
14093;DHT22;7123;49.468;10.992;2023-07-16T15:53:41;26.50;99.90
14093;DHT22;7123;49.468;10.992;2023-07-16T15:56:12;26.20;99.90
14093;DHT22;7123;49.468;10.992;2023-07-16T15:58:39;26.10;99.90
14093;DHT22;7123;49.468;10.992;2023-07-16T16:01:07;26.00;99.90
14093;DHT22;7123;49.468;10.992;2023-07-16T16:03:34;26.00;99.90
14093;DHT22;7123;49.468;10.992;2023-07-16T16:06:01;26.10;99.90
14093;DHT22;7123;49.468;10.992;2023-07-16T16:08:28;26.10;99.90
14093;DHT22;7123;49.468;10.992;2023-07-16T16:10:55;26.20;99.90
14093;DHT22;7123;49.468;10.992;2023-07-16T16:13:23;26.40;99.90